Time;durP1;ratioP1;P1;durP2;ratioP2;P2;SDS_P1;SDS_P2;PMS_P1;PMS_P2;Temp;Humidity;BMP_temperature;BMP_pressure;BME280_temperature;BME280_humidity;BME280_pressure;Samples;Min_cycle;Max_cycle;Signal;HPM_P1;HPM_P2
2023/10/13 00:02:10;;;;;;;42.47;22.85;;;16.20;99.90;;;;;;4917499;29;20083;-81
2023/10/13 00:04:37;;;;;;;49.83;24.02;;;16.20;99.90;;;;;;4931946;29;20044;-81
2023/10/13 00:07:04;;;;;;;44.17;24.40;;;16.20;99.90;;;;;;4948119;29;20051;-82
2023/10/13 00:09:37;;;;;;;41.75;23.65;;;16.20;99.90;;;;;;4908224;29;20033;-81
2023/10/13 00:12:09;;;;;;;44.35;23.38;;;16.30;99.90;;;;;;4912973;29;20398;-82
2023/10/13 00:14:40;;;;;;;41.20;23.73;;;16.20;99.90;;;;;;4898850;29;20444;-81
2023/10/13 00:17:07;;;;;;;38.65;23.17;;;16.30;99.90;;;;;;4898559;29;20391;-81
2023/10/13 00:19:46;;;;;;;42.97;22.63;;;16.20;99.90;;;;;;4936891;29;20028;-81
2023/10/13 00:22:16;;;;;;;45.33;22.40;;;16.30;99.90;;;;;;4947689;28;20033;-81
2023/10/13 00:24:47;;;;;;;49.38;25.33;;;16.30;99.90;;;;;;4916061;29;20549;-81
2023/10/13 00:27:29;;;;;;;46.25;25.13;;;16.40;99.90;;;;;;4917168;29;20398;-81
2023/10/13 00:32:51;;;;;;;52.97;26.23;;;16.30;99.90;;;;;;4928676;29;20044;-81
2023/10/13 00:35:36;;;;;;;47.22;26.42;;;16.40;99.90;;;;;;4912899;29;20029;-81
2023/10/13 00:38:27;;;;;;;44.42;23.30;;;16.30;99.90;;;;;;4898226;29;20103;-82
2023/10/13 00:40:53;;;;;;;44.30;23.15;;;16.30;99.90;;;;;;4914475;29;20577;-81
2023/10/13 00:45:57;;;;;;;42.60;24.10;;;16.20;99.90;;;;;;4947535;29;20099;-81
2023/10/13 00:48:29;;;;;;;41.95;23.95;;;16.20;99.90;;;;;;4931610;29;20403;-81
2023/10/13 00:51:02;;;;;;;46.40;24.58;;;16.10;99.90;;;;;;4928767;29;20037;-81
2023/10/13 00:53:33;;;;;;;44.83;23.50;;;16.10;99.90;;;;;;4912678;29;20071;-81
2023/10/13 00:56:07;;;;;;;50.33;25.23;;;16.00;99.90;;;;;;4898014;29;20032;-81
2023/10/13 00:58:39;;;;;;;45.50;25.45;;;16.00;99.90;;;;;;4912446;29;20039;-81
2023/10/13 01:01:17;;;;;;;45.65;24.02;;;16.00;99.90;;;;;;4896605;29;20060;-82
2023/10/13 01:03:49;;;;;;;54.97;26.08;;;16.00;99.90;;;;;;4896840;29;20037;-82
2023/10/13 01:06:19;;;;;;;62.00;27.88;;;16.00;99.90;;;;;;4896160;29;20128;-79
2023/10/13 01:08:56;;;;;;;51.17;27.15;;;16.00;99.90;;;;;;4898910;29;20099;-81
2023/10/13 01:11:23;;;;;;;58.78;27.38;;;15.90;99.90;;;;;;4899704;29;20028;-81
2023/10/13 01:13:53;;;;;;;46.70;23.92;;;15.90;99.90;;;;;;4899672;29;20024;-81
2023/10/13 01:16:26;;;;;;;50.08;24.38;;;15.90;99.90;;;;;;4915206;29;20058;-82
2023/10/13 01:18:59;;;;;;;56.75;24.02;;;15.90;99.90;;;;;;4916609;29;20490;-81
2023/10/13 01:21:29;;;;;;;42.42;22.73;;;15.90;99.90;;;;;;4947890;28;20042;-81
2023/10/13 01:23:56;;;;;;;49.40;23.85;;;15.90;99.90;;;;;;4933226;29;20115;-80
2023/10/13 01:26:26;;;;;;;49.17;22.95;;;15.80;99.90;;;;;;4934193;29;20031;-82
2023/10/13 01:28:59;;;;;;;46.55;23.65;;;15.80;99.90;;;;;;4932561;29;20115;-82
2023/10/13 01:31:29;;;;;;;43.90;23.70;;;15.70;99.90;;;;;;4915289;29;20447;-81
2023/10/13 01:33:58;;;;;;;44.15;23.85;;;15.70;99.90;;;;;;4948104;28;20033;-81
2023/10/13 01:36:35;;;;;;;57.85;25.30;;;15.70;99.90;;;;;;4934802;29;20083;-81
2023/10/13 01:39:02;;;;;;;53.55;26.95;;;15.60;99.90;;;;;;4917462;29;20064;-80
2023/10/13 01:41:30;;;;;;;48.97;25.35;;;15.60;99.90;;;;;;4901184;29;20021;-81
2023/10/13 01:43:57;;;;;;;50.15;26.35;;;15.60;99.90;;;;;;4915595;29;20036;-82
2023/10/13 01:46:23;;;;;;;43.50;21.92;;;15.50;99.90;;;;;;4901034;29;20025;-81
2023/10/13 01:48:54;;;;;;;49.67;26.23;;;15.40;99.90;;;;;;4902110;29;20033;-81
2023/10/13 01:51:23;;;;;;;42.17;24.42;;;15.40;99.90;;;;;;4919879;29;20028;-81
2023/10/13 01:53:56;;;;;;;47.85;24.90;;;15.30;99.90;;;;;;4934459;29;20065;-82
2023/10/13 01:56:25;;;;;;;47.10;24.10;;;15.30;99.90;;;;;;4949993;29;20468;-81
2023/10/13 01:58:53;;;;;;;50.20;25.05;;;15.30;99.90;;;;;;4946029;29;20180;-81
2023/10/13 02:01:29;;;;;;;48.30;24.98;;;15.30;99.90;;;;;;4949162;29;20127;-82
2023/10/13 02:04:06;;;;;;;46.42;24.33;;;15.30;99.90;;;;;;4918478;29;20036;-81
2023/10/13 02:06:36;;;;;;;42.67;23.80;;;15.30;99.90;;;;;;4921230;29;20055;-82
2023/10/13 02:09:13;;;;;;;67.15;29.50;;;15.40;99.90;;;;;;4931749;29;20498;-81
2023/10/13 02:11:41;;;;;;;97.85;34.60;;;15.40;99.90;;;;;;4915200;29;20045;-81
2023/10/13 02:14:22;;;;;;;92.47;35.97;;;15.50;99.90;;;;;;4899423;29;20032;-82
2023/10/13 02:16:50;;;;;;;104.25;38.00;;;15.50;99.90;;;;;;4899771;29;20611;-81
2023/10/13 02:19:19;;;;;;;102.50;34.17;;;15.50;99.90;;;;;;4903960;29;20035;-81
2023/10/13 02:21:58;;;;;;;86.82;33.75;;;15.50;99.90;;;;;;4938374;29;20500;-82
2023/10/13 02:24:29;;;;;;;72.70;31.27;;;15.60;99.90;;;;;;4937112;29;20159;-81
2023/10/13 02:27:04;;;;;;;74.43;32.22;;;15.70;99.90;;;;;;4936912;29;20047;-82
2023/10/13 02:29:38;;;;;;;68.55;29.65;;;15.70;99.90;;;;;;4930909;29;20108;-82
2023/10/13 02:32:12;;;;;;;62.75;27.85;;;15.70;99.90;;;;;;4902264;29;20043;-81
2023/10/13 02:34:43;;;;;;;59.63;28.08;;;15.60;99.90;;;;;;4917929;29;20040;-81
2023/10/13 02:37:11;;;;;;;63.42;27.45;;;15.60;99.90;;;;;;4919207;29;20036;-82
2023/10/13 02:39:41;;;;;;;56.35;26.65;;;15.60;99.90;;;;;;4904842;29;20023;-81
2023/10/13 02:42:08;;;;;;;60.95;27.58;;;15.50;99.90;;;;;;4936703;29;20512;-81
2023/10/13 02:44:36;;;;;;;60.25;28.67;;;15.50;99.90;;;;;;4920420;29;20541;-82
2023/10/13 02:47:13;;;;;;;83.72;27.52;;;15.60;99.90;;;;;;4937036;29;20115;-82
2023/10/13 02:49:43;;;;;;;62.03;26.25;;;15.60;99.90;;;;;;4930030;29;20600;-82
2023/10/13 02:52:10;;;;;;;54.28;26.63;;;15.60;99.90;;;;;;4917680;29;20541;-82
2023/10/13 02:54:42;;;;;;;57.13;26.10;;;15.60;99.90;;;;;;4901859;29;20056;-81
2023/10/13 02:57:10;;;;;;;67.43;29.02;;;15.60;99.90;;;;;;4917563;29;20110;-82
2023/10/13 02:59:40;;;;;;;57.75;26.92;;;15.50;99.90;;;;;;4920704;29;20095;-81
2023/10/13 03:02:28;;;;;;;63.65;27.30;;;15.40;99.90;;;;;;4937621;29;20083;-81
2023/10/13 03:04:59;;;;;;;55.70;26.42;;;15.40;99.90;;;;;;4937458;29;20054;-82
2023/10/13 03:07:29;;;;;;;49.92;25.33;;;15.40;99.90;;;;;;4936462;29;20139;-81
2023/10/13 03:10:09;;;;;;;51.65;25.38;;;15.40;99.90;;;;;;4932057;29;20034;-83
2023/10/13 03:12:37;;;;;;;53.53;25.00;;;15.30;99.90;;;;;;4901941;29;20398;-83
2023/10/13 03:15:21;;;;;;;55.25;26.92;;;15.30;99.90;;;;;;4901957;29;20370;-84
2023/10/13 03:17:48;;;;;;;55.92;26.38;;;15.30;99.90;;;;;;4901855;29;20389;-84
2023/10/13 03:20:22;;;;;;;49.20;25.73;;;15.20;99.90;;;;;;4908624;29;20052;-84
2023/10/13 03:22:54;;;;;;;53.97;28.23;;;15.20;99.90;;;;;;4921373;29;20039;-86
2023/10/13 03:26:08;;;;;;;60.25;26.75;;;15.10;99.90;;;;;;4921294;29;20039;-84
2023/10/13 03:28:16;;;;;;;55.20;27.85;;;15.10;99.90;;;;;;4932623;29;20055;-86
2023/10/13 03:30:43;;;;;;;53.13;26.88;;;15.10;99.90;;;;;;4902011;29;20052;-85
2023/10/13 03:33:14;;;;;;;49.55;26.50;;;15.10;99.90;;;;;;4905195;29;20028;-85
2023/10/13 03:35:42;;;;;;;48.00;24.92;;;15.10;99.90;;;;;;4898733;29;20032;-83
2023/10/13 03:38:19;;;;;;;54.25;25.95;;;15.10;99.90;;;;;;4898467;29;20418;-85
2023/10/13 03:43:52;;;;;;;44.22;24.60;;;15.10;99.90;;;;;;4932144;29;20032;-88
2023/10/13 03:46:21;;;;;;;49.38;25.85;;;15.10;99.90;;;;;;4936318;29;20035;-83
2023/10/13 03:48:57;;;;;;;46.00;24.75;;;15.00;99.90;;;;;;4919990;29;20119;-83
2023/10/13 03:51:30;;;;;;;46.22;25.23;;;15.00;99.90;;;;;;4906393;29;20073;-83
2023/10/13 03:53:58;;;;;;;44.05;25.05;;;14.90;99.90;;;;;;4916614;29;20143;-83
2023/10/13 03:56:38;;;;;;;44.15;24.70;;;14.90;99.90;;;;;;4932311;29;20494;-83
2023/10/13 03:59:17;;;;;;;41.63;23.75;;;14.90;99.90;;;;;;4932517;29;20042;-82
2023/10/13 04:17:33;;;;;;;29.80;18.10;;;14.90;99.90;;;;;;4916703;29;20032;-84
2023/10/13 04:31:06;;;;;;;36.42;19.58;;;14.90;99.90;;;;;;4935231;29;20417;-83
2023/10/13 04:36:36;;;;;;;33.10;20.15;;;14.90;99.90;;;;;;4935232;29;20051;-83
2023/10/13 04:41:43;;;;;;;39.55;20.35;;;14.90;99.90;;;;;;4947906;29;20028;-83
2023/10/13 04:44:48;;;;;;;29.95;18.05;;;14.90;99.90;;;;;;4932207;29;20031;-85
2023/10/13 04:47:21;;;;;;;35.90;20.80;;;14.80;99.90;;;;;;4948471;29;20499;-86
2023/10/13 04:52:37;;;;;;;41.13;21.55;;;14.70;99.90;;;;;;4917754;29;20040;-83
2023/10/13 04:55:17;;;;;;;36.78;20.00;;;14.70;99.90;;;;;;4924594;29;20028;-83
2023/10/13 04:57:49;;;;;;;36.90;20.90;;;14.60;99.90;;;;;;4914576;29;20431;-83
2023/10/13 05:03:40;;;;;;;41.70;20.95;;;14.60;99.90;;;;;;4947740;29;20394;-83
2023/10/13 05:06:10;;;;;;;31.30;19.63;;;14.60;99.90;;;;;;4947355;28;20494;-83
2023/10/13 05:44:53;;;;;;;51.55;26.63;;;15.20;99.90;;;;;;4906971;29;20292;-80
2023/10/13 06:28:41;;;;;;;30.23;27.40;;;21.40;99.90;;;;;;4900489;29;20112;-84
2023/10/13 06:31:12;;;;;;;30.23;27.58;;;21.70;99.90;;;;;;4945613;29;20032;-83
2023/10/13 06:33:44;;;;;;;31.00;27.98;;;21.80;99.90;;;;;;4949818;29;20312;-84
2023/10/13 06:36:11;;;;;;;29.77;27.38;;;22.00;99.90;;;;;;4949755;29;20056;-83
2023/10/13 06:38:37;;;;;;;30.55;28.02;;;22.20;99.90;;;;;;4917572;29;20032;-84
2023/10/13 06:41:05;;;;;;;32.85;29.63;;;22.20;99.90;;;;;;4904952;29;20028;-84
2023/10/13 06:43:43;;;;;;;32.08;28.98;;;22.30;99.90;;;;;;4930600;29;20036;-84
2023/10/13 06:46:16;;;;;;;30.63;27.98;;;22.60;99.90;;;;;;4914609;29;20032;-84
2023/10/13 06:48:43;;;;;;;31.60;28.70;;;22.70;99.90;;;;;;4914671;29;20071;-84
2023/10/13 06:51:22;;;;;;;31.35;28.75;;;22.80;99.90;;;;;;4913575;29;20087;-84
2023/10/13 06:53:51;;;;;;;32.80;30.05;;;23.00;99.90;;;;;;4917655;29;20032;-84
2023/10/13 06:56:29;;;;;;;31.70;28.77;;;23.10;99.90;;;;;;4919435;29;20024;-85
2023/10/13 06:58:59;;;;;;;30.55;27.95;;;23.30;99.90;;;;;;4949597;29;20059;-75
2023/10/13 07:01:29;;;;;;;32.83;30.02;;;23.50;99.90;;;;;;4901886;29;20035;-75
2023/10/13 07:04:01;;;;;;;30.95;28.00;;;23.70;99.90;;;;;;4899520;29;20029;-75
2023/10/13 07:06:28;;;;;;;31.35;28.45;;;23.90;99.90;;;;;;4899249;29;20052;-75
2023/10/13 07:08:56;;;;;;;31.33;28.42;;;24.40;99.90;;;;;;4899408;29;20064;-75
2023/10/13 07:11:42;;;;;;;31.42;28.55;;;24.40;99.90;;;;;;4900989;29;20028;-75
2023/10/13 07:14:16;;;;;;;31.00;28.15;;;24.20;99.90;;;;;;4899549;29;20029;-75
2023/10/13 07:16:46;;;;;;;31.67;28.75;;;24.70;99.90;;;;;;4899592;29;20028;-75
2023/10/13 07:19:17;;;;;;;31.27;28.58;;;25.20;99.90;;;;;;4899453;29;20032;-74
2023/10/13 07:21:47;;;;;;;32.83;29.67;;;25.80;99.90;;;;;;4918094;29;20058;-75
2023/10/13 07:24:15;;;;;;;32.60;29.88;;;26.00;99.90;;;;;;4949069;28;20028;-75
2023/10/13 07:26:57;;;;;;;32.53;29.98;;;26.20;99.90;;;;;;4918154;29;20080;-74
2023/10/13 07:29:24;;;;;;;33.78;30.90;;;26.60;99.90;;;;;;4917816;29;20044;-75
2023/10/13 07:31:51;;;;;;;33.78;30.77;;;26.60;99.90;;;;;;4904197;29;20415;-75
2023/10/13 07:34:26;;;;;;;35.05;31.92;;;26.80;99.90;;;;;;4937182;29;20032;-75
2023/10/13 07:36:59;;;;;;;34.35;31.35;;;26.80;99.90;;;;;;4937197;29;20031;-75
2023/10/13 07:39:40;;;;;;;34.43;31.10;;;27.60;99.90;;;;;;4936491;29;20028;-75
2023/10/13 07:42:15;;;;;;;34.55;31.38;;;27.50;99.90;;;;;;4916803;29;20039;-75
2023/10/13 07:44:45;;;;;;;33.78;30.90;;;26.90;99.90;;;;;;4917847;29;20103;-75
2023/10/13 07:47:14;;;;;;;34.72;31.30;;;26.80;99.90;;;;;;4917744;29;20028;-75
2023/10/13 07:49:41;;;;;;;34.40;30.80;;;26.70;99.90;;;;;;4915607;29;20116;-75
2023/10/13 07:54:56;;;;;;;32.35;29.25;;;26.40;99.90;;;;;;4898358;29;20067;-75
2023/10/13 07:57:31;;;;;;;32.08;28.98;;;26.30;99.90;;;;;;4897979;29;20455;-75
2023/10/13 08:00:25;;;;;;;32.05;29.45;;;26.40;99.90;;;;;;4903106;29;20396;-75
2023/10/13 08:06:06;;;;;;;33.13;30.30;;;26.60;99.90;;;;;;4915109;29;20055;-75
2023/10/13 08:08:42;;;;;;;32.22;29.30;;;26.40;99.90;;;;;;4915221;29;20044;-75
2023/10/13 08:13:59;;;;;;;33.17;29.80;;;26.90;99.90;;;;;;4896355;29;20108;-75
2023/10/13 08:19:27;;;;;;;32.65;29.67;;;26.90;99.90;;;;;;4880719;29;20040;-75
2023/10/13 08:27:34;;;;;;;32.65;29.85;;;26.80;99.90;;;;;;4895980;29;20182;-74
2023/10/13 08:35:33;;;;;;;32.70;29.73;;;26.90;99.90;;;;;;4914860;29;20557;-74
2023/10/13 08:38:13;;;;;;;33.95;30.95;;;27.00;99.90;;;;;;4915775;29;20106;-75
2023/10/13 08:41:25;;;;;;;34.42;31.08;;;26.70;99.90;;;;;;4907702;29;20037;-75
2023/10/13 08:43:50;;;;;;;34.90;32.00;;;26.60;99.90;;;;;;4897933;29;20048;-75
2023/10/13 08:46:31;;;;;;;35.05;31.95;;;26.80;99.90;;;;;;4898050;29;20517;-75
2023/10/13 08:49:09;;;;;;;33.40;30.70;;;27.00;99.90;;;;;;4898022;29;20057;-74
2023/10/13 08:51:49;;;;;;;33.35;30.65;;;27.00;99.90;;;;;;4914318;29;20037;-75
2023/10/13 08:54:33;;;;;;;34.88;31.27;;;27.10;99.90;;;;;;4916706;29;20482;-75
2023/10/13 08:57:19;;;;;;;34.20;31.10;;;27.20;99.90;;;;;;4916889;29;20040;-75
2023/10/13 08:59:55;;;;;;;34.85;31.63;;;27.00;99.90;;;;;;4914871;29;20506;-74
2023/10/13 09:08:08;;;;;;;33.55;30.63;;;27.20;99.90;;;;;;4935584;29;20047;-75
2023/10/13 09:10:44;;;;;;;32.88;30.00;;;27.40;99.90;;;;;;4927511;29;20501;-75
2023/10/13 09:13:20;;;;;;;34.35;30.75;;;27.40;99.90;;;;;;4916633;29;20486;-75
2023/10/13 09:15:59;;;;;;;33.78;30.50;;;27.40;99.90;;;;;;4916566;29;20032;-75
2023/10/13 09:18:42;;;;;;;34.50;31.42;;;27.40;99.90;;;;;;4916622;29;20028;-75
2023/10/13 09:24:15;;;;;;;34.05;31.20;;;27.20;99.90;;;;;;4897722;29;20033;-75
2023/10/13 09:26:41;;;;;;;33.22;30.63;;;27.00;99.90;;;;;;4897460;29;20028;-75
2023/10/13 09:29:18;;;;;;;34.90;31.45;;;27.20;99.90;;;;;;4901595;29;20475;-75
2023/10/13 09:31:59;;;;;;;33.63;30.75;;;27.60;99.90;;;;;;4917923;29;20033;-75
2023/10/13 09:34:30;;;;;;;35.20;32.08;;;27.80;99.90;;;;;;4916387;29;20461;-75
2023/10/13 09:37:03;;;;;;;33.80;31.02;;;27.50;99.90;;;;;;4928536;29;20039;-75
2023/10/13 09:39:30;;;;;;;35.10;32.03;;;27.50;99.90;;;;;;4933736;29;20039;-75
2023/10/13 09:41:59;;;;;;;35.15;31.90;;;27.40;99.90;;;;;;4934031;29;20048;-75
2023/10/13 09:44:30;;;;;;;35.58;32.47;;;27.30;99.90;;;;;;4935287;29;20028;-75
2023/10/13 09:47:07;;;;;;;34.75;31.73;;;27.30;99.90;;;;;;4935275;29;20036;-75
2023/10/13 09:49:44;;;;;;;34.80;32.03;;;27.30;99.90;;;;;;4935264;29;20032;-75
2023/10/13 09:52:19;;;;;;;35.08;32.40;;;27.30;99.90;;;;;;4897444;29;20120;-75
2023/10/13 09:55:11;;;;;;;34.65;31.77;;;27.30;99.90;;;;;;4898634;29;20032;-74
2023/10/13 09:57:44;;;;;;;35.15;32.03;;;27.20;99.90;;;;;;4904966;29;20114;-75
2023/10/13 10:03:14;;;;;;;35.00;32.38;;;27.40;99.90;;;;;;4900912;29;20168;-75
2023/10/13 10:05:49;;;;;;;34.92;32.00;;;27.40;99.90;;;;;;4900571;29;20044;-75
2023/10/13 10:08:33;;;;;;;34.05;31.27;;;27.60;99.90;;;;;;4904256;29;20511;-75
2023/10/13 10:11:23;;;;;;;35.25;32.30;;;27.50;99.90;;;;;;4926474;29;20059;-75
2023/10/13 10:14:12;;;;;;;34.60;32.00;;;27.60;99.90;;;;;;4950075;29;20032;-74
2023/10/13 10:16:49;;;;;;;34.10;31.38;;;27.40;99.90;;;;;;4919323;29;20540;-75
2023/10/13 10:19:18;;;;;;;34.45;31.70;;;27.10;99.90;;;;;;4919478;29;20489;-75
2023/10/13 10:21:45;;;;;;;34.67;31.45;;;27.20;99.90;;;;;;4903202;29;20051;-75
2023/10/13 10:24:39;;;;;;;34.92;31.83;;;27.10;99.90;;;;;;4900807;29;20435;-75
2023/10/13 10:27:06;;;;;;;35.28;32.22;;;27.20;99.90;;;;;;4900711;29;20056;-75
2023/10/13 10:29:32;;;;;;;35.38;32.55;;;27.30;99.90;;;;;;4900445;29;20428;-75
2023/10/13 10:32:13;;;;;;;37.08;34.05;;;27.30;99.90;;;;;;4918448;29;20096;-75
2023/10/13 10:34:40;;;;;;;35.83;32.35;;;27.50;99.90;;;;;;4919170;29;20034;-75
2023/10/13 10:37:09;;;;;;;35.90;33.08;;;27.50;99.90;;;;;;4920036;29;20020;-74
2023/10/13 10:39:44;;;;;;;36.05;33.35;;;27.70;99.90;;;;;;4937011;29;20067;-75
2023/10/13 10:42:16;;;;;;;36.00;33.15;;;27.70;99.90;;;;;;4930515;29;20032;-75
2023/10/13 10:44:44;;;;;;;35.70;33.15;;;27.60;99.90;;;;;;4900112;29;20028;-75
2023/10/13 10:50:34;;;;;;;36.72;33.90;;;27.80;99.90;;;;;;4864801;29;20076;-75
2023/10/13 10:53:08;;;;;;;;;;;27.90;99.90;;;;;;4879572;29;20041;-75
2023/10/13 10:55:38;;;;;;;36.72;33.85;;;27.90;99.90;;;;;;4879135;29;19912;-75
2023/10/13 10:58:28;;;;;;;36.67;33.95;;;27.70;99.90;;;;;;4879053;29;20037;-75
2023/10/13 11:01:11;;;;;;;36.13;33.28;;;27.80;99.90;;;;;;4870469;29;20029;-75
2023/10/13 11:03:41;;;;;;;36.33;33.40;;;28.00;99.90;;;;;;4845165;29;20038;-75
2023/10/13 11:06:20;;;;;;;36.83;33.95;;;27.80;99.90;;;;;;4890132;29;20127;-75
2023/10/13 11:08:52;;;;;;;36.22;33.53;;;27.60;99.90;;;;;;4897485;29;20058;-75
2023/10/13 11:11:37;;;;;;;36.50;33.88;;;27.70;99.90;;;;;;4885621;29;20041;-75
2023/10/13 11:14:13;;;;;;;36.17;33.30;;;27.70;99.90;;;;;;4878666;29;20083;-75
2023/10/13 11:16:50;;;;;;;37.33;33.95;;;27.60;99.90;;;;;;4878663;29;20033;-75
2023/10/13 11:19:25;;;;;;;35.22;32.40;;;27.50;99.90;;;;;;4878715;29;20041;-75
2023/10/13 11:21:57;;;;;;;36.10;33.03;;;27.60;99.90;;;;;;4862571;29;20033;-75
2023/10/13 11:24:23;;;;;;;36.75;33.95;;;27.80;99.90;;;;;;4882050;29;20041;-75
2023/10/13 11:26:54;;;;;;;36.40;33.40;;;27.70;99.90;;;;;;4898320;29;20047;-75
2023/10/13 11:29:33;;;;;;;35.33;32.65;;;27.50;99.90;;;;;;4929658;29;20058;-75
2023/10/13 11:32:03;;;;;;;36.17;33.47;;;27.50;99.90;;;;;;4924721;29;20107;-75
2023/10/13 11:34:39;;;;;;;37.15;34.08;;;27.50;99.90;;;;;;4936955;29;20023;-75
2023/10/13 11:39:51;;;;;;;37.47;34.40;;;27.70;99.90;;;;;;4936715;29;20032;-75
2023/10/13 11:42:18;;;;;;;36.22;33.42;;;27.80;99.90;;;;;;4947940;29;20024;-75
2023/10/13 11:44:45;;;;;;;36.05;33.58;;;28.00;99.90;;;;;;4917841;29;20030;-75
2023/10/13 11:50:05;;;;;;;37.38;34.35;;;27.80;99.90;;;;;;4926858;29;20114;-75
2023/10/13 11:52:31;;;;;;;37.72;34.65;;;27.80;99.90;;;;;;4917775;29;20032;-75
2023/10/13 11:54:58;;;;;;;40.10;34.72;;;28.00;99.90;;;;;;4917808;29;20036;-75
2023/10/13 11:57:24;;;;;;;36.42;33.63;;;27.80;99.90;;;;;;4915038;29;20105;-75
2023/10/13 11:59:53;;;;;;;37.30;34.45;;;27.80;99.90;;;;;;4918289;29;20036;-75
2023/10/13 12:04:57;;;;;;;36.47;33.80;;;27.80;99.90;;;;;;4897199;29;20132;-74
2023/10/13 12:07:27;;;;;;;37.15;34.40;;;27.80;99.90;;;;;;4898574;29;20500;-75
2023/10/13 12:12:23;;;;;;;38.35;35.22;;;28.00;99.90;;;;;;4917613;29;20032;-75
2023/10/13 12:14:52;;;;;;;36.83;34.08;;;27.90;99.90;;;;;;4917219;29;20032;-76
2023/10/13 12:17:25;;;;;;;37.30;34.45;;;27.80;99.90;;;;;;4917075;29;20456;-76
2023/10/13 12:20:04;;;;;;;37.28;34.50;;;27.80;99.90;;;;;;4919563;29;20055;-76
2023/10/13 12:22:51;;;;;;;36.60;33.97;;;27.80;99.90;;;;;;4898400;29;20067;-74
2023/10/13 12:28:18;;;;;;;37.58;34.78;;;27.70;99.90;;;;;;4896919;29;20578;-75
2023/10/13 12:30:52;;;;;;;37.13;34.63;;;27.60;99.90;;;;;;4904547;29;20027;-75
2023/10/13 12:33:36;;;;;;;37.10;34.50;;;27.70;99.90;;;;;;4915947;29;20028;-75
2023/10/13 12:48:55;;;;;;;36.65;33.80;;;28.00;99.90;;;;;;4917031;29;20402;-75
2023/10/13 12:52:16;;;;;;;37.75;34.53;;;27.60;99.90;;;;;;4899479;29;20024;-75
2023/10/13 12:55:29;;;;;;;36.55;34.08;;;27.40;99.90;;;;;;4897889;29;20039;-75
2023/10/13 12:57:32;;;;;;;36.75;33.95;;;27.60;99.90;;;;;;4893858;29;20052;-75
2023/10/13 12:59:58;;;;;;;36.42;33.88;;;27.60;99.90;;;;;;4897890;29;20037;-75
2023/10/13 13:02:25;;;;;;;38.05;34.80;;;27.60;99.90;;;;;;4916762;29;20028;-75
2023/10/13 13:05:11;;;;;;;36.83;34.40;;;27.70;99.90;;;;;;4916327;29;20488;-75
2023/10/13 13:07:54;;;;;;;36.75;33.88;;;27.60;99.90;;;;;;4916666;29;20123;-75
2023/10/13 13:10:34;;;;;;;36.42;33.92;;;27.70;99.90;;;;;;4916690;29;20025;-75
2023/10/13 13:13:03;;;;;;;36.95;34.13;;;27.50;99.90;;;;;;4915478;29;20028;-74
2023/10/13 13:15:32;;;;;;;35.63;33.33;;;27.50;99.90;;;;;;4915359;29;20398;-74
2023/10/13 13:18:09;;;;;;;36.47;33.88;;;27.60;99.90;;;;;;4916636;29;20398;-73
2023/10/13 13:20:39;;;;;;;36.25;33.63;;;27.50;99.90;;;;;;4925293;29;20036;-74
2023/10/13 13:23:05;;;;;;;36.30;33.70;;;27.50;99.90;;;;;;4922986;29;20111;-72
2023/10/13 13:25:33;;;;;;;36.10;33.60;;;27.30;99.90;;;;;;4935070;29;20042;-76
2023/10/13 13:28:05;;;;;;;37.55;34.83;;;27.50;99.90;;;;;;4935414;29;20127;-73
2023/10/13 13:30:34;;;;;;;37.28;34.63;;;27.40;99.90;;;;;;4933649;29;20444;-74
2023/10/13 13:33:10;;;;;;;37.90;35.15;;;27.20;99.90;;;;;;4918992;29;20032;-74
2023/10/13 13:35:42;;;;;;;38.30;35.55;;;27.20;99.90;;;;;;4918698;29;20020;-74
2023/10/13 13:38:09;;;;;;;37.45;34.78;;;27.20;99.90;;;;;;4919862;29;20039;-74
2023/10/13 13:40:39;;;;;;;38.42;35.10;;;27.00;99.90;;;;;;4915751;29;20025;-73
2023/10/13 13:43:06;;;;;;;36.70;33.95;;;27.00;99.90;;;;;;4915392;29;20032;-75
2023/10/13 13:45:41;;;;;;;36.95;34.30;;;27.00;99.90;;;;;;4938997;29;20059;-74
2023/10/13 13:48:15;;;;;;;37.13;34.35;;;26.90;99.90;;;;;;4938984;29;20489;-74
2023/10/13 13:50:41;;;;;;;35.77;33.37;;;27.00;99.90;;;;;;4934179;29;20040;-75
2023/10/13 13:53:11;;;;;;;35.90;33.40;;;26.90;99.90;;;;;;4919937;29;20024;-73
2023/10/13 13:55:39;;;;;;;36.53;33.80;;;26.90;99.90;;;;;;4950337;28;20042;-77
2023/10/13 13:58:08;;;;;;;37.15;34.28;;;26.80;99.90;;;;;;4931031;29;20084;-78
2023/10/13 14:00:37;;;;;;;36.45;33.83;;;26.80;99.90;;;;;;4946649;29;20035;-78
2023/10/13 14:03:12;;;;;;;36.60;34.22;;;26.80;99.90;;;;;;4899760;29;20025;-78
2023/10/13 14:05:45;;;;;;;36.92;34.15;;;26.90;99.90;;;;;;4900541;29;20135;-78
2023/10/13 14:08:13;;;;;;;37.38;34.38;;;26.90;99.90;;;;;;4946789;29;20450;-78
2023/10/13 14:16:16;;;;;;;37.70;35.08;;;26.80;99.90;;;;;;4919456;29;20393;-78
2023/10/13 14:18:47;;;;;;;38.08;34.90;;;26.70;99.90;;;;;;4919541;29;20070;-77
2023/10/13 14:21:17;;;;;;;36.90;34.13;;;26.70;99.90;;;;;;4918180;29;20025;-77
2023/10/13 14:23:48;;;;;;;36.72;34.05;;;26.80;99.90;;;;;;4919406;29;20095;-79
2023/10/13 14:26:25;;;;;;;37.13;34.25;;;26.70;99.90;;;;;;4919243;29;20032;-78
2023/10/13 14:29:00;;;;;;;36.83;34.00;;;26.70;99.90;;;;;;4919227;29;20040;-77
2023/10/13 14:31:28;;;;;;;36.83;34.38;;;26.50;99.90;;;;;;4909085;29;20159;-77
2023/10/13 14:33:56;;;;;;;36.78;34.28;;;26.50;99.90;;;;;;4900312;29;20024;-77
2023/10/13 14:36:28;;;;;;;37.97;34.78;;;26.50;99.90;;;;;;4898989;29;20077;-77
2023/10/13 14:38:56;;;;;;;36.15;33.72;;;26.50;99.90;;;;;;4900326;29;20079;-78
2023/10/13 14:41:22;;;;;;;36.92;34.25;;;26.40;99.90;;;;;;4909337;29;20054;-76
2023/10/13 14:43:49;;;;;;;37.38;34.55;;;26.40;99.90;;;;;;4919016;29;20128;-77
2023/10/13 14:46:22;;;;;;;37.00;34.30;;;26.30;99.90;;;;;;4918851;29;20028;-78
2023/10/13 14:48:52;;;;;;;36.97;34.13;;;26.20;99.90;;;;;;4918748;29;20505;-78
2023/10/13 14:51:18;;;;;;;36.70;33.92;;;26.30;99.90;;;;;;4910086;29;20116;-76
2023/10/13 14:53:49;;;;;;;36.90;34.13;;;26.20;99.90;;;;;;4898978;29;20439;-77
2023/10/13 14:56:17;;;;;;;37.08;34.40;;;26.10;99.90;;;;;;4900177;29;20045;-77
2023/10/13 14:58:44;;;;;;;37.95;34.65;;;26.10;99.90;;;;;;4930278;29;20025;-77
2023/10/13 15:01:17;;;;;;;38.13;35.30;;;26.10;99.90;;;;;;4922052;29;20442;-77
2023/10/13 15:03:48;;;;;;;37.53;34.35;;;25.90;99.90;;;;;;4918767;29;20552;-76
2023/10/13 15:06:28;;;;;;;36.85;34.03;;;25.80;99.90;;;;;;4917113;29;20095;-76
2023/10/13 15:08:57;;;;;;;36.63;34.03;;;25.70;99.90;;;;;;4933315;29;20036;-78
2023/10/13 15:11:35;;;;;;;36.55;33.95;;;25.60;99.90;;;;;;4940036;29;20158;-79
2023/10/13 15:14:09;;;;;;;36.50;33.75;;;25.40;99.90;;;;;;4899723;29;20039;-79
2023/10/13 15:16:35;;;;;;;35.33;32.92;;;25.40;99.90;;;;;;4913996;29;20044;-76
2023/10/13 15:19:06;;;;;;;36.08;33.42;;;25.50;99.90;;;;;;4899381;29;20037;-76
2023/10/13 15:21:36;;;;;;;35.88;32.85;;;25.50;99.90;;;;;;4909656;29;20059;-74
2023/10/13 15:24:13;;;;;;;35.67;32.72;;;25.30;99.90;;;;;;4918265;29;20040;-74
2023/10/13 15:26:47;;;;;;;36.15;33.13;;;25.20;99.90;;;;;;4918106;29;20505;-74
2023/10/13 15:29:16;;;;;;;36.83;33.60;;;25.20;99.90;;;;;;4918269;29;20049;-74
2023/10/13 15:32:04;;;;;;;35.22;32.50;;;25.10;99.90;;;;;;4925525;29;20489;-74
2023/10/13 15:34:32;;;;;;;35.50;32.50;;;25.00;99.90;;;;;;4899282;29;20091;-74
2023/10/13 15:36:59;;;;;;;35.15;32.28;;;24.90;99.90;;;;;;4897784;29;20490;-73
2023/10/13 15:39:28;;;;;;;35.85;32.67;;;24.80;99.90;;;;;;4899010;29;20431;-75
2023/10/13 15:41:59;;;;;;;34.28;31.80;;;24.70;99.90;;;;;;4911769;29;20020;-74
2023/10/13 15:44:29;;;;;;;34.33;31.67;;;24.60;99.90;;;;;;4916678;29;20036;-74
2023/10/13 15:46:57;;;;;;;34.55;31.85;;;24.50;99.90;;;;;;4916521;29;20054;-75
2023/10/13 15:49:27;;;;;;;33.85;31.10;;;24.40;99.90;;;;;;4916591;29;20371;-74
2023/10/13 15:51:56;;;;;;;33.35;30.77;;;24.30;99.90;;;;;;4916324;29;20383;-73
2023/10/13 15:54:23;;;;;;;32.58;30.13;;;24.20;99.90;;;;;;4916266;29;20123;-74
2023/10/13 15:56:52;;;;;;;33.58;30.60;;;24.10;99.90;;;;;;4916410;29;20024;-74
2023/10/13 15:59:18;;;;;;;32.63;30.10;;;24.00;99.90;;;;;;4916259;29;20114;-74
2023/10/13 16:01:46;;;;;;;33.72;30.63;;;24.00;99.90;;;;;;4906409;29;20455;-74
2023/10/13 16:04:18;;;;;;;32.85;30.02;;;23.80;99.90;;;;;;4898718;29;20395;-74
2023/10/13 16:06:46;;;;;;;33.22;30.55;;;23.70;99.90;;;;;;4898320;29;20049;-74
2023/10/13 16:09:19;;;;;;;33.72;30.20;;;23.70;99.90;;;;;;4898488;29;20048;-74
2023/10/13 16:11:46;;;;;;;33.20;30.03;;;23.60;99.90;;;;;;4909688;29;20064;-74